createdAt,value
2023-06-30T00:00:29.768Z,100764.13
2023-06-30T00:03:32.819Z,100768.56
2023-06-30T00:06:35.887Z,100771.69
2023-06-30T00:09:40.083Z,100764.47
2023-06-30T00:12:42.968Z,100769.38
2023-06-30T00:15:45.987Z,100768.75
2023-06-30T00:18:49.352Z,100771.69
2023-06-30T00:21:53.594Z,100767.25
2023-06-30T00:24:59.661Z,100767.91
2023-06-30T00:28:02.531Z,100768.06
2023-06-30T00:31:05.423Z,100769.38
2023-06-30T00:34:08.279Z,100769.25
2023-06-30T00:37:11.040Z,100769.53
2023-06-30T00:40:16.367Z,100764.81
2023-06-30T00:43:19.260Z,100768.06
2023-06-30T00:46:22.126Z,100762.66
2023-06-30T00:49:25.267Z,100763.66
2023-06-30T00:52:28.184Z,100761.97
2023-06-30T00:55:33.180Z,100763.63
2023-06-30T00:58:36.044Z,100764.78
2023-06-30T01:01:45.128Z,100763.06
2023-06-30T01:04:55.064Z,100763.22
2023-06-30T01:08:04.011Z,100749.13
2023-06-30T01:11:10.003Z,100753.66
2023-06-30T01:14:13.546Z,100753.66
2023-06-30T01:17:19.577Z,100750.25
2023-06-30T01:20:23.574Z,100748.63
2023-06-30T01:23:35.646Z,100752.34
2023-06-30T01:26:42.180Z,100741.38
2023-06-30T01:29:45.320Z,100736.94
2023-06-30T01:32:48.977Z,100739.72
2023-06-30T01:35:51.944Z,100738.09
2023-06-30T01:38:54.697Z,100738.41
2023-06-30T01:41:59.003Z,100733.97
2023-06-30T01:45:03.256Z,100736.09
2023-06-30T01:48:06.941Z,100730.19
2023-06-30T01:51:11.360Z,100722.31
2023-06-30T01:54:14.233Z,100731.00
2023-06-30T01:57:18.449Z,100734.06
2023-06-30T02:00:21.325Z,100724.41
2023-06-30T02:03:24.306Z,100729.16
2023-06-30T02:06:27.263Z,100741.13
2023-06-30T02:09:42.669Z,100722.88
2023-06-30T02:12:51.275Z,100720.28
2023-06-30T02:15:54.192Z,100715.84
2023-06-30T02:18:56.962Z,100706.03
2023-06-30T02:21:59.843Z,100721.63
2023-06-30T02:25:02.583Z,100726.53
2023-06-30T02:28:07.182Z,100722.28
2023-06-30T02:31:10.071Z,100720.97
2023-06-30T02:34:13.024Z,100712.94
2023-06-30T02:37:16.094Z,100699.47
2023-06-30T02:40:19.002Z,100700.28
2023-06-30T02:43:23.353Z,100695.19
2023-06-30T02:46:26.156Z,100696.84
2023-06-30T02:49:29.512Z,100699.28
2023-06-30T02:52:34.422Z,100697.16
2023-06-30T02:55:39.338Z,100690.78
2023-06-30T02:58:43.743Z,100693.03
2023-06-30T03:01:46.577Z,100686.66
2023-06-30T03:04:49.330Z,100694.81
2023-06-30T03:07:52.052Z,100696.44
2023-06-30T03:10:54.949Z,100690.22
2023-06-30T03:13:59.087Z,100685.97
2023-06-30T03:17:02.865Z,100682.19
2023-06-30T03:20:13.366Z,100681.22
2023-06-30T03:23:16.142Z,100676.66
2023-06-30T03:26:18.859Z,100673.53
2023-06-30T03:29:24.510Z,100679.78
2023-06-30T03:32:27.410Z,100675.88
2023-06-30T03:35:30.359Z,100677.84
2023-06-30T03:38:33.107Z,100672.44
2023-06-30T03:41:36.043Z,100678.00
2023-06-30T03:44:40.287Z,100671.59
2023-06-30T03:47:43.070Z,100681.59
2023-06-30T03:50:45.988Z,100684.88
2023-06-30T03:53:48.662Z,100683.75
2023-06-30T03:56:51.421Z,100691.97
2023-06-30T03:59:55.554Z,100688.69
2023-06-30T04:02:58.336Z,100679.03
2023-06-30T04:06:01.332Z,100678.56
2023-06-30T04:09:17.683Z,100674.50
2023-06-30T04:12:35.583Z,100679.09
2023-06-30T04:15:39.921Z,100684.38
2023-06-30T04:18:42.672Z,100682.56
2023-06-30T04:21:45.585Z,100683.91
2023-06-30T04:24:48.351Z,100689.13
2023-06-30T04:27:51.173Z,100680.94
2023-06-30T04:30:55.469Z,100674.22
2023-06-30T04:33:58.367Z,100670.63
2023-06-30T04:37:01.210Z,100660.44
2023-06-30T04:40:05.862Z,100652.75
2023-06-30T04:43:13.790Z,100649.97
2023-06-30T04:46:18.197Z,100650.28
2023-06-30T04:49:21.101Z,100655.19
2023-06-30T04:52:23.850Z,100648.06
2023-06-30T04:55:26.574Z,100653.97
2023-06-30T04:58:29.454Z,100658.03
2023-06-30T05:01:34.167Z,100645.91
2023-06-30T05:04:37.023Z,100636.41
2023-06-30T05:07:39.966Z,100634.59
2023-06-30T05:10:42.754Z,100641.66
2023-06-30T05:13:45.609Z,100636.94
2023-06-30T05:16:50.248Z,100630.13
2023-06-30T05:19:53.032Z,100621.72
2023-06-30T05:22:55.899Z,100634.69
2023-06-30T05:25:59.814Z,100633.31
2023-06-30T05:29:05.257Z,100636.50
2023-06-30T05:32:10.469Z,100636.59
2023-06-30T05:35:13.202Z,100635.69
2023-06-30T05:38:15.983Z,100639.81
2023-06-30T05:41:18.768Z,100633.19
2023-06-30T05:44:21.567Z,100646.47
2023-06-30T05:47:25.770Z,100645.00
2023-06-30T05:50:30.046Z,100653.91
2023-06-30T05:53:32.971Z,100654.19
2023-06-30T05:56:35.890Z,100662.84
2023-06-30T05:59:38.654Z,100646.94
2023-06-30T06:02:42.809Z,100656.47
2023-06-30T06:05:46.010Z,100656.69
2023-06-30T06:08:49.430Z,100662.47
2023-06-30T06:11:52.492Z,100656.88
2023-06-30T06:14:55.244Z,100658.91
2023-06-30T06:17:59.385Z,100653.47
2023-06-30T06:21:04.381Z,100656.72
2023-06-30T06:24:08.423Z,100654.59
2023-06-30T06:27:11.419Z,100656.94
2023-06-30T06:30:15.006Z,100664.38
2023-06-30T06:33:19.191Z,100655.69
2023-06-30T06:36:22.478Z,100667.69
2023-06-30T06:39:25.452Z,100653.56
2023-06-30T06:42:28.346Z,100659.09
2023-06-30T06:45:31.046Z,100655.41
2023-06-30T06:48:35.388Z,100656.75
2023-06-30T06:51:38.186Z,100661.97
2023-06-30T06:54:41.071Z,100666.47
2023-06-30T06:57:43.876Z,100668.59
2023-06-30T07:00:48.202Z,100675.50
2023-06-30T07:03:52.432Z,100678.13
2023-06-30T07:06:55.672Z,100670.00
2023-06-30T07:09:58.443Z,100671.28
2023-06-30T07:13:01.214Z,100677.72
2023-06-30T07:16:04.127Z,100694.84
2023-06-30T07:19:08.310Z,100689.09
2023-06-30T07:22:11.083Z,100690.09
2023-06-30T07:25:14.092Z,100698.16
2023-06-30T07:28:17.036Z,100689.91
2023-06-30T07:31:19.857Z,100683.84
2023-06-30T07:34:24.879Z,100685.97
2023-06-30T07:37:27.601Z,100670.97
2023-06-30T07:40:41.635Z,100662.34
2023-06-30T07:43:49.176Z,100669.53
2023-06-30T07:46:51.982Z,100665.09
2023-06-30T07:49:56.139Z,100671.50
2023-06-30T07:52:58.900Z,100674.44
2023-06-30T07:56:01.761Z,100675.59
2023-06-30T07:59:04.567Z,100670.69
2023-06-30T08:02:07.900Z,100669.38
2023-06-30T08:05:12.787Z,100670.00
2023-06-30T08:08:15.731Z,100677.31
2023-06-30T08:11:18.651Z,100681.63
2023-06-30T08:14:21.401Z,100682.31
2023-06-30T08:17:30.888Z,100682.88
2023-06-30T08:20:43.804Z,100679.19
2023-06-30T08:23:46.537Z,100675.66
2023-06-30T08:26:49.442Z,100675.78
2023-06-30T08:29:52.181Z,100675.88
2023-06-30T08:32:57.663Z,100658.97
2023-06-30T08:36:02.188Z,100672.00
2023-06-30T08:39:05.164Z,100671.72
2023-06-30T08:42:10.234Z,100674.91
2023-06-30T08:45:15.095Z,100666.91
2023-06-30T08:48:21.083Z,100677.66
2023-06-30T08:51:25.999Z,100681.28
2023-06-30T08:54:29.885Z,100676.91
2023-06-30T08:57:33.808Z,100682.09
2023-06-30T09:00:36.627Z,100687.72
2023-06-30T09:03:40.519Z,100685.56
2023-06-30T09:06:49.312Z,100685.78
2023-06-30T09:09:55.957Z,100688.66
2023-06-30T09:12:59.624Z,100687.84
2023-06-30T09:16:07.739Z,100681.66
2023-06-30T09:19:11.501Z,100684.44
2023-06-30T09:22:53.832Z,100688.84
2023-06-30T09:25:41.875Z,100684.97
2023-06-30T09:28:45.212Z,100684.75
2023-06-30T09:31:51.997Z,100685.41
2023-06-30T09:34:55.464Z,100685.41
2023-06-30T09:37:59.770Z,100679.97
2023-06-30T09:41:06.462Z,100668.44
2023-06-30T09:44:11.792Z,100672.91
2023-06-30T09:47:19.396Z,100684.50
2023-06-30T09:50:26.080Z,100685.81
2023-06-30T09:53:37.928Z,100674.41
2023-06-30T09:56:42.596Z,100675.63
2023-06-30T09:59:47.547Z,100680.56
2023-06-30T10:03:03.845Z,100687.75
2023-06-30T10:06:06.868Z,100689.41
2023-06-30T10:09:11.286Z,100701.66
2023-06-30T10:12:16.768Z,100695.88
2023-06-30T10:15:19.946Z,100697.00
2023-06-30T10:18:22.859Z,100699.91
2023-06-30T10:21:25.618Z,100695.00
2023-06-30T10:24:31.611Z,100696.50
2023-06-30T10:27:35.997Z,100691.22
2023-06-30T10:30:39.548Z,100690.22
2023-06-30T10:33:42.971Z,100697.47
2023-06-30T10:36:46.528Z,100689.34
2023-06-30T10:39:50.706Z,100689.38
2023-06-30T10:42:55.593Z,100689.56
2023-06-30T10:46:11.346Z,100695.47
2023-06-30T10:49:20.015Z,100683.63
2023-06-30T10:52:30.285Z,100682.34
2023-06-30T10:55:34.709Z,100679.06
2023-06-30T10:58:43.219Z,100679.53
2023-06-30T11:02:13.789Z,100686.97
2023-06-30T11:05:24.594Z,100683.97
2023-06-30T11:08:27.732Z,100685.88
2023-06-30T11:11:32.045Z,100679.91
2023-06-30T11:14:34.818Z,100682.69
2023-06-30T11:18:04.753Z,100669.09
2023-06-30T11:21:09.186Z,100678.66
2023-06-30T11:24:16.524Z,100677.19
2023-06-30T11:27:20.868Z,100671.97
2023-06-30T11:30:24.393Z,100678.59
2023-06-30T11:33:27.144Z,100687.94
2023-06-30T11:36:32.424Z,100689.44
2023-06-30T11:39:36.756Z,100684.66
2023-06-30T11:42:44.174Z,100700.47
2023-06-30T11:45:57.216Z,100694.72
2023-06-30T11:49:00.298Z,100687.53
2023-06-30T11:52:03.330Z,100695.38
2023-06-30T11:55:10.019Z,100684.88
2023-06-30T11:58:19.973Z,100688.16
2023-06-30T12:01:22.886Z,100689.00
2023-06-30T12:04:36.918Z,100681.09
2023-06-30T12:07:40.533Z,100678.13
2023-06-30T12:10:44.246Z,100664.84
2023-06-30T12:13:48.829Z,100681.22
2023-06-30T12:16:52.728Z,100687.31
2023-06-30T12:19:55.517Z,100689.16
2023-06-30T12:22:58.583Z,100690.59
2023-06-30T12:26:01.400Z,100687.31
2023-06-30T12:29:06.083Z,100686.88
2023-06-30T12:32:14.943Z,100680.59
2023-06-30T12:35:17.879Z,100693.25
2023-06-30T12:38:20.714Z,100679.47
2023-06-30T12:41:24.176Z,100686.69
2023-06-30T12:44:28.319Z,100683.56
2023-06-30T12:47:31.288Z,100665.06
2023-06-30T12:50:34.453Z,100665.50
2023-06-30T12:53:37.784Z,100666.53
2023-06-30T12:56:40.535Z,100660.13
2023-06-30T12:59:44.949Z,100675.84
2023-06-30T13:02:47.812Z,100678.50
2023-06-30T13:05:52.249Z,100675.69
2023-06-30T13:08:55.002Z,100671.88
2023-06-30T13:11:58.461Z,100672.22
2023-06-30T13:15:02.867Z,100675.69
2023-06-30T13:18:05.615Z,100676.97
2023-06-30T13:21:08.878Z,100672.38
2023-06-30T13:24:12.696Z,100676.84
2023-06-30T13:27:15.645Z,100680.78
2023-06-30T13:30:19.907Z,100692.13
2023-06-30T13:33:23.070Z,100687.19
2023-06-30T13:36:27.452Z,100688.31
2023-06-30T13:39:31.848Z,100679.97
2023-06-30T13:42:36.026Z,100678.28
2023-06-30T13:45:40.303Z,100673.19
2023-06-30T13:48:43.322Z,100674.47
2023-06-30T13:51:46.180Z,100665.06
2023-06-30T13:54:48.925Z,100663.88
2023-06-30T13:57:51.703Z,100672.50
2023-06-30T14:00:56.013Z,100670.84
2023-06-30T14:03:58.804Z,100671.63
2023-06-30T14:07:03.652Z,100666.78
2023-06-30T14:10:07.221Z,100662.97
2023-06-30T14:13:10.021Z,100670.81
2023-06-30T14:16:14.417Z,100664.84
2023-06-30T14:19:17.309Z,100657.28
2023-06-30T14:22:20.179Z,100658.41
2023-06-30T14:25:25.412Z,100668.94
2023-06-30T14:28:28.213Z,100653.25
2023-06-30T14:31:35.667Z,100650.16
2023-06-30T14:34:38.774Z,100657.72
2023-06-30T14:37:41.650Z,100647.78
2023-06-30T14:44:05.669Z,100637.25
2023-06-30T14:47:10.104Z,100645.50
2023-06-30T14:50:12.889Z,100647.28
2023-06-30T14:53:16.508Z,100655.84
2023-06-30T14:56:19.397Z,100657.84
2023-06-30T14:59:22.171Z,100660.56
2023-06-30T15:02:26.680Z,100681.25
2023-06-30T15:05:30.601Z,100680.56
2023-06-30T15:08:33.505Z,100672.25
2023-06-30T15:11:36.357Z,100671.59
2023-06-30T15:14:39.138Z,100675.84
2023-06-30T15:17:43.527Z,100686.03
2023-06-30T15:20:46.424Z,100684.00
2023-06-30T15:23:49.182Z,100684.47
2023-06-30T15:26:52.004Z,100673.78
2023-06-30T15:29:55.059Z,100668.94
2023-06-30T15:32:59.421Z,100670.66
2023-06-30T15:36:02.286Z,100665.09
2023-06-30T15:39:05.485Z,100668.91
2023-06-30T15:42:08.649Z,100675.97
2023-06-30T15:45:11.986Z,100667.97
2023-06-30T15:48:16.211Z,100664.47
2023-06-30T15:51:21.114Z,100665.44
2023-06-30T15:54:24.061Z,100664.94
2023-06-30T15:57:26.880Z,100672.44
2023-06-30T16:00:29.629Z,100677.13
2023-06-30T16:03:34.050Z,100690.81
2023-06-30T16:06:36.801Z,100690.94
2023-06-30T16:09:39.681Z,100685.19
2023-06-30T16:12:42.484Z,100682.53
2023-06-30T16:15:45.716Z,100679.09
2023-06-30T16:18:50.411Z,100687.28
2023-06-30T16:21:54.521Z,100675.16
2023-06-30T16:25:00.482Z,100666.94
2023-06-30T16:28:03.425Z,100665.38
2023-06-30T16:31:06.180Z,100666.06
2023-06-30T16:34:10.468Z,100664.28
2023-06-30T16:37:13.261Z,100660.75
2023-06-30T16:40:16.112Z,100641.03
2023-06-30T16:43:19.026Z,100637.91
2023-06-30T16:46:21.780Z,100632.19
2023-06-30T16:49:26.970Z,100629.75
2023-06-30T16:52:29.744Z,100631.75
2023-06-30T16:55:32.637Z,100620.44
2023-06-30T16:58:35.548Z,100617.81
2023-06-30T17:01:38.292Z,100629.75
2023-06-30T17:04:42.767Z,100617.97
2023-06-30T17:07:45.707Z,100615.50
2023-06-30T17:10:48.636Z,100612.53
2023-06-30T17:13:51.602Z,100619.06
2023-06-30T17:16:54.393Z,100620.25
2023-06-30T17:19:58.647Z,100627.13
2023-06-30T17:23:01.496Z,100630.25
2023-06-30T17:26:04.384Z,100624.84
2023-06-30T17:29:07.170Z,100627.59
2023-06-30T17:32:10.220Z,100624.97
2023-06-30T17:35:14.496Z,100629.91
2023-06-30T17:38:17.243Z,100635.94
2023-06-30T17:41:20.373Z,100633.50
2023-06-30T17:44:24.294Z,100621.19
2023-06-30T17:47:27.055Z,100625.59
2023-06-30T17:50:31.254Z,100613.84
2023-06-30T17:53:34.207Z,100625.78
2023-06-30T17:56:37.038Z,100623.50
2023-06-30T17:59:39.901Z,100631.84
2023-06-30T18:02:42.709Z,100629.06
2023-06-30T18:05:47.150Z,100628.09
2023-06-30T18:08:50.127Z,100636.44
2023-06-30T18:11:53.061Z,100631.00
2023-06-30T18:14:55.847Z,100635.19
2023-06-30T18:17:59.150Z,100635.19
2023-06-30T18:21:03.306Z,100640.44
2023-06-30T18:24:07.837Z,100641.59
2023-06-30T18:27:10.565Z,100647.66
2023-06-30T18:30:13.730Z,100642.06
2023-06-30T18:33:16.679Z,100641.59
2023-06-30T18:36:20.925Z,100648.78
2023-06-30T18:39:23.669Z,100648.06
2023-06-30T18:42:26.402Z,100647.41
2023-06-30T18:45:29.268Z,100643.63
2023-06-30T18:48:32.301Z,100648.88
2023-06-30T18:51:36.470Z,100651.13
2023-06-30T18:54:39.286Z,100646.22
2023-06-30T18:57:42.241Z,100638.84
2023-06-30T19:00:45.244Z,100647.00
2023-06-30T19:03:49.364Z,100648.44
2023-06-30T19:06:53.934Z,100661.53
2023-06-30T19:09:56.628Z,100667.94
2023-06-30T19:12:59.705Z,100665.16
2023-06-30T19:16:02.662Z,100671.50
2023-06-30T19:19:05.431Z,100670.81
2023-06-30T19:22:09.714Z,100669.38
2023-06-30T19:25:12.465Z,100668.56
2023-06-30T19:28:15.414Z,100664.66
2023-06-30T19:31:18.413Z,100668.81
2023-06-30T19:34:21.254Z,100667.13
2023-06-30T19:37:25.491Z,100658.75
2023-06-30T19:40:28.314Z,100668.47
2023-06-30T19:43:31.213Z,100663.50
2023-06-30T19:46:35.425Z,100659.66
2023-06-30T19:49:38.725Z,100658.28
2023-06-30T19:52:42.927Z,100658.69
2023-06-30T19:55:46.038Z,100655.50
2023-06-30T19:58:49.516Z,100657.31
2023-06-30T20:01:55.832Z,100657.47
2023-06-30T20:04:58.629Z,100659.41
2023-06-30T20:08:03.086Z,100664.47
2023-06-30T20:11:05.844Z,100658.69
2023-06-30T20:14:08.857Z,100653.47
2023-06-30T20:17:11.767Z,100656.41
2023-06-30T20:20:15.097Z,100659.19
2023-06-30T20:23:19.632Z,100649.53
2023-06-30T20:26:22.407Z,100650.69
2023-06-30T20:29:25.323Z,100646.47
2023-06-30T20:32:28.258Z,100648.13
2023-06-30T20:35:31.043Z,100649.28
2023-06-30T20:38:35.145Z,100655.16
2023-06-30T20:41:37.888Z,100650.97
2023-06-30T20:44:40.796Z,100652.94
2023-06-30T20:47:43.672Z,100648.50
2023-06-30T20:50:46.755Z,100650.97
2023-06-30T20:53:51.169Z,100646.75
2023-06-30T20:56:55.476Z,100653.44
2023-06-30T20:59:58.325Z,100645.91
2023-06-30T21:03:01.306Z,100649.53
2023-06-30T21:06:04.084Z,100651.28
2023-06-30T21:09:08.320Z,100641.50
2023-06-30T21:12:11.234Z,100643.81
2023-06-30T21:15:14.118Z,100647.88
2023-06-30T21:18:17.194Z,100649.13
2023-06-30T21:21:20.131Z,100653.25
2023-06-30T21:24:24.417Z,100650.63
2023-06-30T21:27:27.917Z,100651.94
2023-06-30T21:30:30.905Z,100659.97
2023-06-30T21:33:33.718Z,100656.31
2023-06-30T21:36:39.547Z,100652.16
2023-06-30T21:39:44.298Z,100648.28
2023-06-30T21:42:47.026Z,100651.06
2023-06-30T21:45:49.891Z,100648.78
2023-06-30T21:48:53.986Z,100645.50
2023-06-30T21:52:16.115Z,100646.50
2023-06-30T21:55:20.628Z,100647.34
2023-06-30T21:58:27.707Z,100630.03
2023-06-30T22:01:39.929Z,100635.28
2023-06-30T22:04:43.805Z,100627.88
2023-06-30T22:07:46.759Z,100628.84
2023-06-30T22:10:51.194Z,100625.25
2023-06-30T22:13:54.118Z,100618.53
2023-06-30T22:16:57.904Z,100629.13
2023-06-30T22:20:00.633Z,100625.03
2023-06-30T22:23:03.531Z,100620.59
2023-06-30T22:26:07.896Z,100622.06
2023-06-30T22:29:10.659Z,100622.19
2023-06-30T22:32:14.704Z,100617.44
2023-06-30T22:35:17.556Z,100607.06
2023-06-30T22:38:20.477Z,100607.47
2023-06-30T22:41:24.744Z,100600.19
2023-06-30T22:44:27.493Z,100597.38
2023-06-30T22:47:30.372Z,100588.72
2023-06-30T22:50:33.205Z,100587.22
2023-06-30T22:53:36.074Z,100587.50
2023-06-30T22:56:40.455Z,100580.19
2023-06-30T22:59:43.165Z,100583.66
2023-06-30T23:02:46.114Z,100580.69
2023-06-30T23:05:48.919Z,100583.31
2023-06-30T23:08:51.794Z,100576.22
2023-06-30T23:11:56.014Z,100583.84
2023-06-30T23:14:58.756Z,100575.38
2023-06-30T23:18:01.669Z,100580.13
2023-06-30T23:21:10.305Z,100571.47
2023-06-30T23:24:13.268Z,100579.59
2023-06-30T23:27:18.105Z,100570.28
2023-06-30T23:30:26.397Z,100568.03
2023-06-30T23:33:29.300Z,100575.13
2023-06-30T23:36:32.349Z,100571.22
2023-06-30T23:39:36.962Z,100571.09
2023-06-30T23:42:41.250Z,100569.38
2023-06-30T23:45:43.948Z,100564.97
2023-06-30T23:48:47.229Z,100560.75
2023-06-30T23:51:51.193Z,100564.34
2023-06-30T23:54:54.139Z,100569.91
2023-06-30T23:57:58.225Z,100575.25
